Navajo Wingate Village, New Mexico
Current Conditions -  °F | °C
As of 1:53 PM on Friday 19 Dec 2014 (Local Time) from KGUP Reporting Station
Clear Clear  
Wind Chill: 39°   Ceiling: Unl
Heat Index: 39°   Visibility: 10mi
Dew Point: 25°   Wind: 0mph
Humidity: 57%   Direction: NA
Pressure: 30.18"   Gusts: NA
Location:  35.5324°N, 108.6°W
Report Text: KGUP 192053Z AUTO 00000KT 10SM CLR 04/M04 A3018 RMK AO2 SLP239 T00391039 57026
Loading
Personal Weather Stations






























Interactive Weather Map New forecast layout! Learn more

10-Day Weather Forecast

Advertisements
Track Severe Weather on mobile